sensor_id;sensor_type;location;lat;lon;timestamp;temperature;humidity
75621;DHT22;64574;48.506;-2.750;2022-12-18T00:00:43;0.00;63.30
75621;DHT22;64574;48.506;-2.750;2022-12-18T00:03:09;0.10;63.20
75621;DHT22;64574;48.506;-2.750;2022-12-18T00:05:35;0.10;63.40
75621;DHT22;64574;48.506;-2.750;2022-12-18T00:08:01;0.00;63.50
75621;DHT22;64574;48.506;-2.750;2022-12-18T00:10:28;0.00;63.50
75621;DHT22;64574;48.506;-2.750;2022-12-18T00:12:54;0.00;63.50
75621;DHT22;64574;48.506;-2.750;2022-12-18T00:15:19;0.00;63.80
75621;DHT22;64574;48.506;-2.750;2022-12-18T00:17:45;0.10;63.60
75621;DHT22;64574;48.506;-2.750;2022-12-18T00:20:11;0.20;63.40
75621;DHT22;64574;48.506;-2.750;2022-12-18T00:22:37;0.10;63.60
75621;DHT22;64574;48.506;-2.750;2022-12-18T00:25:02;0.20;63.40
75621;DHT22;64574;48.506;-2.750;2022-12-18T00:27:28;0.10;63.50
75621;DHT22;64574;48.506;-2.750;2022-12-18T00:29:54;0.00;64.10
75621;DHT22;64574;48.506;-2.750;2022-12-18T00:32:19;0.10;63.90
75621;DHT22;64574;48.506;-2.750;2022-12-18T00:34:45;0.20;63.90
75621;DHT22;64574;48.506;-2.750;2022-12-18T00:37:11;0.10;63.80
75621;DHT22;64574;48.506;-2.750;2022-12-18T00:39:36;0.00;64.10
75621;DHT22;64574;48.506;-2.750;2022-12-18T00:42:02;0.10;64.00
75621;DHT22;64574;48.506;-2.750;2022-12-18T00:44:46;0.00;64.00
75621;DHT22;64574;48.506;-2.750;2022-12-18T00:47:11;0.00;64.20
75621;DHT22;64574;48.506;-2.750;2022-12-18T00:49:37;0.00;64.30
75621;DHT22;64574;48.506;-2.750;2022-12-18T00:52:03;0.00;64.40
75621;DHT22;64574;48.506;-2.750;2022-12-18T00:54:28;0.00;64.40
75621;DHT22;64574;48.506;-2.750;2022-12-18T00:56:54;0.10;64.60
75621;DHT22;64574;48.506;-2.750;2022-12-18T00:59:20;0.20;64.20
75621;DHT22;64574;48.506;-2.750;2022-12-18T01:01:46;0.20;64.10
75621;DHT22;64574;48.506;-2.750;2022-12-18T01:04:12;0.30;63.80
75621;DHT22;64574;48.506;-2.750;2022-12-18T01:06:37;0.30;64.10
75621;DHT22;64574;48.506;-2.750;2022-12-18T01:09:03;0.40;63.70
75621;DHT22;64574;48.506;-2.750;2022-12-18T01:11:29;0.20;64.20
75621;DHT22;64574;48.506;-2.750;2022-12-18T01:13:54;0.20;64.20
75621;DHT22;64574;48.506;-2.750;2022-12-18T01:16:21;0.20;64.50
75621;DHT22;64574;48.506;-2.750;2022-12-18T01:18:47;0.20;64.30
75621;DHT22;64574;48.506;-2.750;2022-12-18T01:21:15;0.00;64.50
75621;DHT22;64574;48.506;-2.750;2022-12-18T01:23:45;0.20;64.60
75621;DHT22;64574;48.506;-2.750;2022-12-18T01:26:13;0.20;64.60
75621;DHT22;64574;48.506;-2.750;2022-12-18T01:28:39;0.10;64.60
75621;DHT22;64574;48.506;-2.750;2022-12-18T01:31:14;0.20;64.80
75621;DHT22;64574;48.506;-2.750;2022-12-18T01:33:40;0.20;64.70
75621;DHT22;64574;48.506;-2.750;2022-12-18T01:36:06;0.20;64.70
75621;DHT22;64574;48.506;-2.750;2022-12-18T01:38:32;0.20;64.80
75621;DHT22;64574;48.506;-2.750;2022-12-18T01:40:59;0.20;64.90
75621;DHT22;64574;48.506;-2.750;2022-12-18T01:43:54;0.20;65.00
75621;DHT22;64574;48.506;-2.750;2022-12-18T01:46:22;0.20;65.10
75621;DHT22;64574;48.506;-2.750;2022-12-18T01:48:59;0.00;65.50
75621;DHT22;64574;48.506;-2.750;2022-12-18T01:51:27;0.20;65.20
75621;DHT22;64574;48.506;-2.750;2022-12-18T01:53:53;0.20;65.40
75621;DHT22;64574;48.506;-2.750;2022-12-18T01:56:20;0.20;65.40
75621;DHT22;64574;48.506;-2.750;2022-12-18T01:58:53;0.20;65.60
75621;DHT22;64574;48.506;-2.750;2022-12-18T02:01:22;0.30;65.60
75621;DHT22;64574;48.506;-2.750;2022-12-18T02:03:48;0.30;65.30
75621;DHT22;64574;48.506;-2.750;2022-12-18T02:06:47;0.30;65.70
75621;DHT22;64574;48.506;-2.750;2022-12-18T02:09:10;0.30;66.00
75621;DHT22;64574;48.506;-2.750;2022-12-18T02:12:41;0.30;65.70
75621;DHT22;64574;48.506;-2.750;2022-12-18T02:17:15;0.40;66.10
75621;DHT22;64574;48.506;-2.750;2022-12-18T02:20:05;0.30;66.30
75621;DHT22;64574;48.506;-2.750;2022-12-18T02:27:52;0.30;67.20
75621;DHT22;64574;48.506;-2.750;2022-12-18T02:30:19;0.30;66.80
75621;DHT22;64574;48.506;-2.750;2022-12-18T02:32:48;0.30;67.20
75621;DHT22;64574;48.506;-2.750;2022-12-18T02:35:22;0.30;67.50
75621;DHT22;64574;48.506;-2.750;2022-12-18T02:37:49;0.30;67.50
75621;DHT22;64574;48.506;-2.750;2022-12-18T02:40:19;0.30;67.80
75621;DHT22;64574;48.506;-2.750;2022-12-18T02:42:46;0.30;68.00
75621;DHT22;64574;48.506;-2.750;2022-12-18T02:45:11;0.30;67.80
75621;DHT22;64574;48.506;-2.750;2022-12-18T02:47:40;0.30;68.00
75621;DHT22;64574;48.506;-2.750;2022-12-18T02:50:41;0.30;68.20
75621;DHT22;64574;48.506;-2.750;2022-12-18T02:53:28;0.40;68.20
75621;DHT22;64574;48.506;-2.750;2022-12-18T02:56:12;0.40;68.30
75621;DHT22;64574;48.506;-2.750;2022-12-18T02:59:02;0.40;68.30
75621;DHT22;64574;48.506;-2.750;2022-12-18T03:04:28;0.40;68.50
75621;DHT22;64574;48.506;-2.750;2022-12-18T03:06:57;0.40;68.60
75621;DHT22;64574;48.506;-2.750;2022-12-18T03:09:34;0.40;69.30
75621;DHT22;64574;48.506;-2.750;2022-12-18T03:12:34;0.60;69.30
75621;DHT22;64574;48.506;-2.750;2022-12-18T03:15:14;0.60;69.50
75621;DHT22;64574;48.506;-2.750;2022-12-18T03:17:44;0.50;69.80
75621;DHT22;64574;48.506;-2.750;2022-12-18T03:20:15;0.60;70.10
75621;DHT22;64574;48.506;-2.750;2022-12-18T03:22:43;0.60;70.20
75621;DHT22;64574;48.506;-2.750;2022-12-18T03:25:13;0.60;70.70
75621;DHT22;64574;48.506;-2.750;2022-12-18T03:27:47;0.70;70.90
75621;DHT22;64574;48.506;-2.750;2022-12-18T03:30:15;0.70;71.20
75621;DHT22;64574;48.506;-2.750;2022-12-18T03:35:08;0.60;71.60
75621;DHT22;64574;48.506;-2.750;2022-12-18T03:37:35;0.70;71.80
75621;DHT22;64574;48.506;-2.750;2022-12-18T03:40:00;0.80;71.90
75621;DHT22;64574;48.506;-2.750;2022-12-18T03:42:36;0.80;72.50
75621;DHT22;64574;48.506;-2.750;2022-12-18T03:48:08;0.80;72.80
75621;DHT22;64574;48.506;-2.750;2022-12-18T03:50:46;0.80;72.90
75621;DHT22;64574;48.506;-2.750;2022-12-18T03:55:40;0.80;73.30
75621;DHT22;64574;48.506;-2.750;2022-12-18T03:58:07;0.80;73.40
75621;DHT22;64574;48.506;-2.750;2022-12-18T04:00:34;0.80;73.40
75621;DHT22;64574;48.506;-2.750;2022-12-18T04:03:01;0.90;73.60
75621;DHT22;64574;48.506;-2.750;2022-12-18T04:05:29;1.00;73.60
75621;DHT22;64574;48.506;-2.750;2022-12-18T04:07:56;1.00;73.90
75621;DHT22;64574;48.506;-2.750;2022-12-18T04:10:22;1.00;74.00
75621;DHT22;64574;48.506;-2.750;2022-12-18T04:12:48;1.00;74.10
75621;DHT22;64574;48.506;-2.750;2022-12-18T04:15:13;1.10;74.40
75621;DHT22;64574;48.506;-2.750;2022-12-18T04:17:46;1.10;74.40
75621;DHT22;64574;48.506;-2.750;2022-12-18T04:20:12;1.10;74.90
75621;DHT22;64574;48.506;-2.750;2022-12-18T04:22:38;1.10;74.80
75621;DHT22;64574;48.506;-2.750;2022-12-18T04:25:04;1.00;75.40
75621;DHT22;64574;48.506;-2.750;2022-12-18T04:27:30;1.10;75.40
75621;DHT22;64574;48.506;-2.750;2022-12-18T04:29:55;1.20;75.50
75621;DHT22;64574;48.506;-2.750;2022-12-18T04:32:21;1.10;75.60
75621;DHT22;64574;48.506;-2.750;2022-12-18T04:34:47;1.00;76.30
75621;DHT22;64574;48.506;-2.750;2022-12-18T04:37:12;1.00;76.50
75621;DHT22;64574;48.506;-2.750;2022-12-18T04:39:38;1.10;76.40
75621;DHT22;64574;48.506;-2.750;2022-12-18T04:42:03;1.10;76.50
75621;DHT22;64574;48.506;-2.750;2022-12-18T04:44:29;1.10;76.70
75621;DHT22;64574;48.506;-2.750;2022-12-18T04:46:54;1.10;76.80
75621;DHT22;64574;48.506;-2.750;2022-12-18T04:49:21;1.10;77.00
75621;DHT22;64574;48.506;-2.750;2022-12-18T04:51:46;1.10;77.30
75621;DHT22;64574;48.506;-2.750;2022-12-18T04:54:12;1.10;77.30
75621;DHT22;64574;48.506;-2.750;2022-12-18T04:56:38;1.00;77.80
75621;DHT22;64574;48.506;-2.750;2022-12-18T04:59:03;1.10;78.00
75621;DHT22;64574;48.506;-2.750;2022-12-18T05:01:29;1.20;78.10
75621;DHT22;64574;48.506;-2.750;2022-12-18T05:03:54;1.20;77.70
75621;DHT22;64574;48.506;-2.750;2022-12-18T05:06:20;1.10;78.10
75621;DHT22;64574;48.506;-2.750;2022-12-18T05:08:46;1.10;78.10
75621;DHT22;64574;48.506;-2.750;2022-12-18T05:11:13;1.20;78.00
75621;DHT22;64574;48.506;-2.750;2022-12-18T05:13:43;1.20;78.00
75621;DHT22;64574;48.506;-2.750;2022-12-18T05:16:09;1.20;78.00
75621;DHT22;64574;48.506;-2.750;2022-12-18T05:18:35;1.10;78.30
75621;DHT22;64574;48.506;-2.750;2022-12-18T05:21:01;1.20;78.50
75621;DHT22;64574;48.506;-2.750;2022-12-18T05:23:28;1.20;78.30
75621;DHT22;64574;48.506;-2.750;2022-12-18T05:25:58;1.10;78.60
75621;DHT22;64574;48.506;-2.750;2022-12-18T05:28:26;1.30;78.60
75621;DHT22;64574;48.506;-2.750;2022-12-18T05:30:54;1.30;78.50
75621;DHT22;64574;48.506;-2.750;2022-12-18T05:33:21;1.30;78.50
75621;DHT22;64574;48.506;-2.750;2022-12-18T05:35:55;1.30;78.60
75621;DHT22;64574;48.506;-2.750;2022-12-18T05:38:22;1.40;78.60
75621;DHT22;64574;48.506;-2.750;2022-12-18T05:40:48;1.40;78.50
75621;DHT22;64574;48.506;-2.750;2022-12-18T05:43:15;1.40;78.90
75621;DHT22;64574;48.506;-2.750;2022-12-18T05:45:41;1.40;78.70
75621;DHT22;64574;48.506;-2.750;2022-12-18T05:48:08;1.40;78.90
75621;DHT22;64574;48.506;-2.750;2022-12-18T05:50:39;1.40;79.00
75621;DHT22;64574;48.506;-2.750;2022-12-18T05:53:06;1.40;79.30
75621;DHT22;64574;48.506;-2.750;2022-12-18T05:55:36;1.40;79.40
75621;DHT22;64574;48.506;-2.750;2022-12-18T05:58:03;1.40;79.70
75621;DHT22;64574;48.506;-2.750;2022-12-18T06:00:29;1.50;79.90
75621;DHT22;64574;48.506;-2.750;2022-12-18T06:02:54;1.50;79.80
75621;DHT22;64574;48.506;-2.750;2022-12-18T06:05:20;1.60;79.90
75621;DHT22;64574;48.506;-2.750;2022-12-18T06:07:46;1.50;80.10
75621;DHT22;64574;48.506;-2.750;2022-12-18T06:10:11;1.60;80.50
75621;DHT22;64574;48.506;-2.750;2022-12-18T06:12:37;1.70;80.50
75621;DHT22;64574;48.506;-2.750;2022-12-18T06:15:03;1.70;81.20
75621;DHT22;64574;48.506;-2.750;2022-12-18T06:17:33;1.80;81.20
75621;DHT22;64574;48.506;-2.750;2022-12-18T06:19:58;1.90;81.20
75621;DHT22;64574;48.506;-2.750;2022-12-18T06:22:25;1.80;81.80
75621;DHT22;64574;48.506;-2.750;2022-12-18T06:24:51;1.80;82.20
75621;DHT22;64574;48.506;-2.750;2022-12-18T06:27:17;1.70;82.40
75621;DHT22;64574;48.506;-2.750;2022-12-18T06:29:42;1.80;82.30
75621;DHT22;64574;48.506;-2.750;2022-12-18T06:32:08;1.90;82.40
75621;DHT22;64574;48.506;-2.750;2022-12-18T06:34:34;1.80;82.30
75621;DHT22;64574;48.506;-2.750;2022-12-18T06:37:02;1.80;82.50
75621;DHT22;64574;48.506;-2.750;2022-12-18T06:39:28;1.90;82.60
75621;DHT22;64574;48.506;-2.750;2022-12-18T06:41:53;1.80;82.90
75621;DHT22;64574;48.506;-2.750;2022-12-18T06:44:19;1.90;83.00
75621;DHT22;64574;48.506;-2.750;2022-12-18T06:46:45;1.90;83.00
75621;DHT22;64574;48.506;-2.750;2022-12-18T06:49:10;2.00;83.10
75621;DHT22;64574;48.506;-2.750;2022-12-18T06:51:36;2.00;83.20
75621;DHT22;64574;48.506;-2.750;2022-12-18T06:54:02;2.00;83.30
75621;DHT22;64574;48.506;-2.750;2022-12-18T06:56:28;2.00;83.30
75621;DHT22;64574;48.506;-2.750;2022-12-18T06:58:53;2.00;83.30
75621;DHT22;64574;48.506;-2.750;2022-12-18T07:01:20;2.00;83.50
75621;DHT22;64574;48.506;-2.750;2022-12-18T07:03:45;2.00;83.70
75621;DHT22;64574;48.506;-2.750;2022-12-18T07:06:17;2.10;83.70
75621;DHT22;64574;48.506;-2.750;2022-12-18T07:08:44;2.10;83.90
75621;DHT22;64574;48.506;-2.750;2022-12-18T07:11:11;2.10;83.60
75621;DHT22;64574;48.506;-2.750;2022-12-18T07:13:37;2.10;83.70
75621;DHT22;64574;48.506;-2.750;2022-12-18T07:16:15;2.20;83.90
75621;DHT22;64574;48.506;-2.750;2022-12-18T07:18:41;2.10;84.00
75621;DHT22;64574;48.506;-2.750;2022-12-18T07:21:13;2.10;84.10
75621;DHT22;64574;48.506;-2.750;2022-12-18T07:23:39;2.10;84.20
75621;DHT22;64574;48.506;-2.750;2022-12-18T07:26:16;2.20;84.30
75621;DHT22;64574;48.506;-2.750;2022-12-18T07:28:42;2.20;84.40
75621;DHT22;64574;48.506;-2.750;2022-12-18T07:31:12;2.20;84.50
75621;DHT22;64574;48.506;-2.750;2022-12-18T07:33:38;2.20;84.60
75621;DHT22;64574;48.506;-2.750;2022-12-18T07:36:06;2.20;84.60
75621;DHT22;64574;48.506;-2.750;2022-12-18T07:38:33;2.30;84.80
75621;DHT22;64574;48.506;-2.750;2022-12-18T07:41:10;2.30;84.60
75621;DHT22;64574;48.506;-2.750;2022-12-18T07:43:37;2.30;84.80
75621;DHT22;64574;48.506;-2.750;2022-12-18T07:46:03;2.30;85.00
75621;DHT22;64574;48.506;-2.750;2022-12-18T07:48:29;2.30;85.00
75621;DHT22;64574;48.506;-2.750;2022-12-18T07:51:02;2.30;85.00
75621;DHT22;64574;48.506;-2.750;2022-12-18T07:53:28;2.30;85.00
75621;DHT22;64574;48.506;-2.750;2022-12-18T07:55:57;2.30;85.10
75621;DHT22;64574;48.506;-2.750;2022-12-18T07:58:23;2.40;85.40
75621;DHT22;64574;48.506;-2.750;2022-12-18T08:00:49;2.40;85.40
75621;DHT22;64574;48.506;-2.750;2022-12-18T08:03:14;2.40;85.50
75621;DHT22;64574;48.506;-2.750;2022-12-18T08:05:40;2.40;85.70
75621;DHT22;64574;48.506;-2.750;2022-12-18T08:08:06;2.40;85.70
75621;DHT22;64574;48.506;-2.750;2022-12-18T08:10:31;2.40;85.80
75621;DHT22;64574;48.506;-2.750;2022-12-18T08:12:57;2.50;85.90
75621;DHT22;64574;48.506;-2.750;2022-12-18T08:15:23;2.50;85.80
75621;DHT22;64574;48.506;-2.750;2022-12-18T08:17:48;2.50;86.00
75621;DHT22;64574;48.506;-2.750;2022-12-18T08:20:14;2.50;86.10
75621;DHT22;64574;48.506;-2.750;2022-12-18T08:22:41;2.50;86.10
75621;DHT22;64574;48.506;-2.750;2022-12-18T08:25:08;2.50;86.20
75621;DHT22;64574;48.506;-2.750;2022-12-18T08:27:34;2.50;86.50
75621;DHT22;64574;48.506;-2.750;2022-12-18T08:30:00;2.50;86.50
75621;DHT22;64574;48.506;-2.750;2022-12-18T08:32:27;2.50;86.50
75621;DHT22;64574;48.506;-2.750;2022-12-18T08:34:53;2.60;86.60
75621;DHT22;64574;48.506;-2.750;2022-12-18T08:37:18;2.60;86.80
75621;DHT22;64574;48.506;-2.750;2022-12-18T08:39:44;2.70;86.80
75621;DHT22;64574;48.506;-2.750;2022-12-18T08:42:10;2.70;86.90
75621;DHT22;64574;48.506;-2.750;2022-12-18T08:44:53;2.70;87.00
75621;DHT22;64574;48.506;-2.750;2022-12-18T08:47:19;2.80;87.20
75621;DHT22;64574;48.506;-2.750;2022-12-18T08:49:45;2.80;87.30
75621;DHT22;64574;48.506;-2.750;2022-12-18T08:52:11;2.90;87.40
75621;DHT22;64574;48.506;-2.750;2022-12-18T08:54:39;2.90;87.60
75621;DHT22;64574;48.506;-2.750;2022-12-18T08:57:04;3.00;87.70
75621;DHT22;64574;48.506;-2.750;2022-12-18T08:59:30;3.00;87.90
75621;DHT22;64574;48.506;-2.750;2022-12-18T09:01:56;3.10;87.90
75621;DHT22;64574;48.506;-2.750;2022-12-18T09:04:22;3.10;88.00
75621;DHT22;64574;48.506;-2.750;2022-12-18T09:06:47;3.10;88.10
75621;DHT22;64574;48.506;-2.750;2022-12-18T09:09:13;3.10;88.30
75621;DHT22;64574;48.506;-2.750;2022-12-18T09:11:39;3.10;88.30
75621;DHT22;64574;48.506;-2.750;2022-12-18T09:14:04;3.10;88.40
75621;DHT22;64574;48.506;-2.750;2022-12-18T09:16:31;3.30;88.60
75621;DHT22;64574;48.506;-2.750;2022-12-18T09:18:58;3.30;88.50
75621;DHT22;64574;48.506;-2.750;2022-12-18T09:21:32;3.30;88.60
75621;DHT22;64574;48.506;-2.750;2022-12-18T09:23:59;3.40;88.90
75621;DHT22;64574;48.506;-2.750;2022-12-18T09:26:25;3.50;89.20
75621;DHT22;64574;48.506;-2.750;2022-12-18T09:28:51;3.60;89.40
75621;DHT22;64574;48.506;-2.750;2022-12-18T09:31:20;3.60;89.40
75621;DHT22;64574;48.506;-2.750;2022-12-18T09:33:46;3.80;89.70
75621;DHT22;64574;48.506;-2.750;2022-12-18T09:36:14;3.80;89.80
75621;DHT22;64574;48.506;-2.750;2022-12-18T09:38:40;3.90;90.00
75621;DHT22;64574;48.506;-2.750;2022-12-18T09:43:51;4.00;90.30
75621;DHT22;64574;48.506;-2.750;2022-12-18T09:46:25;3.90;90.20
75621;DHT22;64574;48.506;-2.750;2022-12-18T09:48:56;3.90;90.20
75621;DHT22;64574;48.506;-2.750;2022-12-18T09:51:29;4.00;90.50
75621;DHT22;64574;48.506;-2.750;2022-12-18T09:54:04;4.10;90.40
75621;DHT22;64574;48.506;-2.750;2022-12-18T09:56:35;4.10;90.50
75621;DHT22;64574;48.506;-2.750;2022-12-18T09:59:03;4.20;90.80
75621;DHT22;64574;48.506;-2.750;2022-12-18T10:01:30;4.20;90.60
75621;DHT22;64574;48.506;-2.750;2022-12-18T10:03:56;4.20;90.70
75621;DHT22;64574;48.506;-2.750;2022-12-18T10:06:35;4.20;90.80
75621;DHT22;64574;48.506;-2.750;2022-12-18T10:09:29;4.20;90.80
75621;DHT22;64574;48.506;-2.750;2022-12-18T10:12:18;4.30;90.90
75621;DHT22;64574;48.506;-2.750;2022-12-18T10:20:24;4.30;91.00
75621;DHT22;64574;48.506;-2.750;2022-12-18T10:25:31;4.60;91.60
75621;DHT22;64574;48.506;-2.750;2022-12-18T10:28:10;4.70;91.60
75621;DHT22;64574;48.506;-2.750;2022-12-18T10:30:39;4.80;91.60
75621;DHT22;64574;48.506;-2.750;2022-12-18T10:33:05;4.70;91.70
75621;DHT22;64574;48.506;-2.750;2022-12-18T10:35:31;4.90;91.90
75621;DHT22;64574;48.506;-2.750;2022-12-18T10:38:05;4.90;91.70
75621;DHT22;64574;48.506;-2.750;2022-12-18T10:40:31;4.90;91.80
75621;DHT22;64574;48.506;-2.750;2022-12-18T10:43:12;4.90;91.70
75621;DHT22;64574;48.506;-2.750;2022-12-18T10:45:38;5.00;92.10
75621;DHT22;64574;48.506;-2.750;2022-12-18T10:48:05;5.00;92.00
75621;DHT22;64574;48.506;-2.750;2022-12-18T10:50:47;5.00;92.10
75621;DHT22;64574;48.506;-2.750;2022-12-18T10:53:25;5.00;92.10
75621;DHT22;64574;48.506;-2.750;2022-12-18T10:55:53;5.10;92.20
75621;DHT22;64574;48.506;-2.750;2022-12-18T11:01:12;5.20;92.10
75621;DHT22;64574;48.506;-2.750;2022-12-18T11:06:06;5.30;92.20
75621;DHT22;64574;48.506;-2.750;2022-12-18T11:08:32;5.30;92.20
75621;DHT22;64574;48.506;-2.750;2022-12-18T11:10:58;5.30;92.20
75621;DHT22;64574;48.506;-2.750;2022-12-18T11:13:26;5.30;92.20
75621;DHT22;64574;48.506;-2.750;2022-12-18T11:15:53;5.30;92.10
75621;DHT22;64574;48.506;-2.750;2022-12-18T11:18:30;5.30;92.20
75621;DHT22;64574;48.506;-2.750;2022-12-18T11:21:09;5.50;92.60
75621;DHT22;64574;48.506;-2.750;2022-12-18T11:23:36;5.50;92.30
75621;DHT22;64574;48.506;-2.750;2022-12-18T11:26:04;5.40;92.40
75621;DHT22;64574;48.506;-2.750;2022-12-18T11:31:11;5.50;92.60
75621;DHT22;64574;48.506;-2.750;2022-12-18T11:33:40;5.40;92.50
75621;DHT22;64574;48.506;-2.750;2022-12-18T11:36:09;5.50;92.70
75621;DHT22;64574;48.506;-2.750;2022-12-18T11:38:37;5.50;92.60
75621;DHT22;64574;48.506;-2.750;2022-12-18T11:44:11;5.50;92.50
75621;DHT22;64574;48.506;-2.750;2022-12-18T11:46:46;5.60;92.60
75621;DHT22;64574;48.506;-2.750;2022-12-18T11:49:22;5.60;92.70
75621;DHT22;64574;48.506;-2.750;2022-12-18T11:51:51;5.60;92.70
75621;DHT22;64574;48.506;-2.750;2022-12-18T11:54:19;5.60;92.50
75621;DHT22;64574;48.506;-2.750;2022-12-18T12:05:01;5.70;92.50
75621;DHT22;64574;48.506;-2.750;2022-12-18T12:16:01;5.80;92.50
75621;DHT22;64574;48.506;-2.750;2022-12-18T12:26:39;5.90;92.10
75621;DHT22;64574;48.506;-2.750;2022-12-18T12:32:33;6.00;91.90
75621;DHT22;64574;48.506;-2.750;2022-12-18T12:38:10;6.00;91.80
75621;DHT22;64574;48.506;-2.750;2022-12-18T12:40:44;6.00;91.70
75621;DHT22;64574;48.506;-2.750;2022-12-18T12:43:22;6.10;91.60
75621;DHT22;64574;48.506;-2.750;2022-12-18T12:45:53;6.10;91.50
75621;DHT22;64574;48.506;-2.750;2022-12-18T12:48:51;6.10;91.50
75621;DHT22;64574;48.506;-2.750;2022-12-18T12:51:26;6.20;91.50
75621;DHT22;64574;48.506;-2.750;2022-12-18T12:53:54;6.20;91.40
75621;DHT22;64574;48.506;-2.750;2022-12-18T12:56:22;6.30;91.50
75621;DHT22;64574;48.506;-2.750;2022-12-18T12:59:08;6.30;91.20
75621;DHT22;64574;48.506;-2.750;2022-12-18T13:04:45;6.50;91.10
75621;DHT22;64574;48.506;-2.750;2022-12-18T13:07:32;6.50;91.20
75621;DHT22;64574;48.506;-2.750;2022-12-18T13:12:54;6.60;91.20
75621;DHT22;64574;48.506;-2.750;2022-12-18T13:15:28;6.70;91.10
75621;DHT22;64574;48.506;-2.750;2022-12-18T13:36:41;7.00;90.70
75621;DHT22;64574;48.506;-2.750;2022-12-18T13:41:50;7.00;90.90
75621;DHT22;64574;48.506;-2.750;2022-12-18T13:44:34;7.00;90.50
75621;DHT22;64574;48.506;-2.750;2022-12-18T13:47:02;7.00;90.50
75621;DHT22;64574;48.506;-2.750;2022-12-18T13:49:43;7.00;90.50
75621;DHT22;64574;48.506;-2.750;2022-12-18T13:52:32;7.00;90.40
75621;DHT22;64574;48.506;-2.750;2022-12-18T13:55:00;7.10;90.60
75621;DHT22;64574;48.506;-2.750;2022-12-18T13:57:31;7.20;90.50
75621;DHT22;64574;48.506;-2.750;2022-12-18T13:59:58;7.20;90.50
75621;DHT22;64574;48.506;-2.750;2022-12-18T14:02:26;7.20;90.50
75621;DHT22;64574;48.506;-2.750;2022-12-18T14:04:53;7.20;90.30
75621;DHT22;64574;48.506;-2.750;2022-12-18T14:09:51;7.30;90.50
75621;DHT22;64574;48.506;-2.750;2022-12-18T14:12:30;7.30;90.50
75621;DHT22;64574;48.506;-2.750;2022-12-18T14:17:57;7.40;90.80
75621;DHT22;64574;48.506;-2.750;2022-12-18T14:20:25;7.40;90.80
75621;DHT22;64574;48.506;-2.750;2022-12-18T14:22:51;7.40;90.80
75621;DHT22;64574;48.506;-2.750;2022-12-18T14:27:47;7.50;90.90
75621;DHT22;64574;48.506;-2.750;2022-12-18T14:30:42;7.50;90.70
75621;DHT22;64574;48.506;-2.750;2022-12-18T14:33:14;7.50;90.90
75621;DHT22;64574;48.506;-2.750;2022-12-18T14:35:42;7.50;91.10
75621;DHT22;64574;48.506;-2.750;2022-12-18T14:40:51;7.50;91.30
75621;DHT22;64574;48.506;-2.750;2022-12-18T14:43:17;7.50;91.10
75621;DHT22;64574;48.506;-2.750;2022-12-18T14:45:44;7.50;91.20
75621;DHT22;64574;48.506;-2.750;2022-12-18T14:50:39;7.50;91.20
75621;DHT22;64574;48.506;-2.750;2022-12-18T14:53:05;7.50;91.50
75621;DHT22;64574;48.506;-2.750;2022-12-18T14:55:33;7.50;91.30
75621;DHT22;64574;48.506;-2.750;2022-12-18T14:57:59;7.60;91.10
75621;DHT22;64574;48.506;-2.750;2022-12-18T15:00:25;7.60;91.40
75621;DHT22;64574;48.506;-2.750;2022-12-18T15:02:55;7.60;91.20
75621;DHT22;64574;48.506;-2.750;2022-12-18T15:05:27;7.70;91.30
75621;DHT22;64574;48.506;-2.750;2022-12-18T15:07:55;7.70;91.50
75621;DHT22;64574;48.506;-2.750;2022-12-18T15:10:31;7.80;91.40
75621;DHT22;64574;48.506;-2.750;2022-12-18T15:23:04;7.70;91.50
75621;DHT22;64574;48.506;-2.750;2022-12-18T15:25:37;7.60;91.50
75621;DHT22;64574;48.506;-2.750;2022-12-18T15:28:04;7.70;91.30
75621;DHT22;64574;48.506;-2.750;2022-12-18T15:33:41;7.60;91.50
75621;DHT22;64574;48.506;-2.750;2022-12-18T15:36:12;7.60;91.70
75621;DHT22;64574;48.506;-2.750;2022-12-18T15:38:38;7.70;91.60
75621;DHT22;64574;48.506;-2.750;2022-12-18T15:41:04;7.60;91.70
75621;DHT22;64574;48.506;-2.750;2022-12-18T15:43:37;7.60;91.80
75621;DHT22;64574;48.506;-2.750;2022-12-18T15:48:37;7.60;92.00
75621;DHT22;64574;48.506;-2.750;2022-12-18T15:51:05;7.60;91.90
75621;DHT22;64574;48.506;-2.750;2022-12-18T15:53:34;7.60;91.90
75621;DHT22;64574;48.506;-2.750;2022-12-18T15:55:59;7.60;92.20
75621;DHT22;64574;48.506;-2.750;2022-12-18T15:58:43;7.60;92.10
75621;DHT22;64574;48.506;-2.750;2022-12-18T16:01:10;7.60;92.00
75621;DHT22;64574;48.506;-2.750;2022-12-18T16:03:36;7.50;91.90
75621;DHT22;64574;48.506;-2.750;2022-12-18T16:06:01;7.50;92.00
75621;DHT22;64574;48.506;-2.750;2022-12-18T16:08:28;7.50;92.20
75621;DHT22;64574;48.506;-2.750;2022-12-18T16:10:56;7.50;92.20
75621;DHT22;64574;48.506;-2.750;2022-12-18T16:13:22;7.50;92.10
75621;DHT22;64574;48.506;-2.750;2022-12-18T16:15:48;7.50;92.20
75621;DHT22;64574;48.506;-2.750;2022-12-18T16:18:14;7.50;92.20
75621;DHT22;64574;48.506;-2.750;2022-12-18T16:20:39;7.50;92.30
75621;DHT22;64574;48.506;-2.750;2022-12-18T16:23:06;7.50;92.20
75621;DHT22;64574;48.506;-2.750;2022-12-18T16:25:32;7.50;92.30
75621;DHT22;64574;48.506;-2.750;2022-12-18T16:27:57;7.50;92.20
75621;DHT22;64574;48.506;-2.750;2022-12-18T16:30:29;7.50;92.20
75621;DHT22;64574;48.506;-2.750;2022-12-18T16:32:58;7.60;92.50
75621;DHT22;64574;48.506;-2.750;2022-12-18T16:35:25;7.60;92.50
75621;DHT22;64574;48.506;-2.750;2022-12-18T16:37:51;7.60;92.60
75621;DHT22;64574;48.506;-2.750;2022-12-18T16:40:18;7.80;92.60
75621;DHT22;64574;48.506;-2.750;2022-12-18T16:42:45;7.70;92.60
75621;DHT22;64574;48.506;-2.750;2022-12-18T16:45:14;7.80;92.70
75621;DHT22;64574;48.506;-2.750;2022-12-18T16:47:40;7.80;92.60
75621;DHT22;64574;48.506;-2.750;2022-12-18T16:50:07;7.90;93.00
75621;DHT22;64574;48.506;-2.750;2022-12-18T16:52:33;7.90;93.00
75621;DHT22;64574;48.506;-2.750;2022-12-18T16:54:59;8.00;93.00
75621;DHT22;64574;48.506;-2.750;2022-12-18T16:57:25;8.00;92.80
75621;DHT22;64574;48.506;-2.750;2022-12-18T16:59:50;7.90;93.00
75621;DHT22;64574;48.506;-2.750;2022-12-18T17:02:19;8.00;93.00
75621;DHT22;64574;48.506;-2.750;2022-12-18T17:04:45;8.00;92.70
75621;DHT22;64574;48.506;-2.750;2022-12-18T17:07:11;8.00;93.00
75621;DHT22;64574;48.506;-2.750;2022-12-18T17:09:37;8.00;93.00
75621;DHT22;64574;48.506;-2.750;2022-12-18T17:12:03;8.00;92.90
75621;DHT22;64574;48.506;-2.750;2022-12-18T17:14:29;7.90;93.00
75621;DHT22;64574;48.506;-2.750;2022-12-18T17:16:54;8.00;93.00
75621;DHT22;64574;48.506;-2.750;2022-12-18T17:19:22;8.00;93.20
75621;DHT22;64574;48.506;-2.750;2022-12-18T17:21:50;8.00;93.00
75621;DHT22;64574;48.506;-2.750;2022-12-18T17:24:16;8.00;93.30
75621;DHT22;64574;48.506;-2.750;2022-12-18T17:26:42;8.00;93.20
75621;DHT22;64574;48.506;-2.750;2022-12-18T17:29:11;8.00;93.20
75621;DHT22;64574;48.506;-2.750;2022-12-18T17:31:37;8.00;93.20
75621;DHT22;64574;48.506;-2.750;2022-12-18T17:34:04;8.00;93.30
75621;DHT22;64574;48.506;-2.750;2022-12-18T17:36:30;8.00;93.40
75621;DHT22;64574;48.506;-2.750;2022-12-18T17:38:59;8.00;93.40
75621;DHT22;64574;48.506;-2.750;2022-12-18T17:41:25;8.00;93.50
75621;DHT22;64574;48.506;-2.750;2022-12-18T17:46:21;8.00;93.50
75621;DHT22;64574;48.506;-2.750;2022-12-18T17:48:47;8.10;93.70
75621;DHT22;64574;48.506;-2.750;2022-12-18T17:51:13;8.00;93.70